sensor_id;sensor_type;location;lat;lon;timestamp;temperature;humidity
16313;DHT22;8265;52.622;13.296;2023-08-31T00:02:55;13.50;93.40
16313;DHT22;8265;52.622;13.296;2023-08-31T00:08:16;13.50;92.80
16313;DHT22;8265;52.622;13.296;2023-08-31T00:13:36;13.60;92.30
16313;DHT22;8265;52.622;13.296;2023-08-31T00:18:57;13.60;92.10
16313;DHT22;8265;52.622;13.296;2023-08-31T00:24:18;13.80;90.20
16313;DHT22;8265;52.622;13.296;2023-08-31T00:29:39;13.90;89.20
16313;DHT22;8265;52.622;13.296;2023-08-31T00:35:00;14.00;89.10
16313;DHT22;8265;52.622;13.296;2023-08-31T00:40:21;14.00;90.30
16313;DHT22;8265;52.622;13.296;2023-08-31T00:45:43;14.00;89.20
16313;DHT22;8265;52.622;13.296;2023-08-31T00:51:03;14.10;88.80
16313;DHT22;8265;52.622;13.296;2023-08-31T00:56:25;14.00;89.00
16313;DHT22;8265;52.622;13.296;2023-08-31T01:02:33;14.00;89.70
16313;DHT22;8265;52.622;13.296;2023-08-31T01:07:29;13.90;89.90
16313;DHT22;8265;52.622;13.296;2023-08-31T01:12:38;13.90;90.20
16313;DHT22;8265;52.622;13.296;2023-08-31T01:17:50;13.90;90.60
16313;DHT22;8265;52.622;13.296;2023-08-31T01:23:10;14.00;90.40
16313;DHT22;8265;52.622;13.296;2023-08-31T01:28:31;14.00;90.70
16313;DHT22;8265;52.622;13.296;2023-08-31T01:33:52;14.10;89.70
16313;DHT22;8265;52.622;13.296;2023-08-31T01:44:34;14.00;89.50
16313;DHT22;8265;52.622;13.296;2023-08-31T01:49:55;14.00;88.70
16313;DHT22;8265;52.622;13.296;2023-08-31T01:55:16;13.90;89.20
16313;DHT22;8265;52.622;13.296;2023-08-31T02:00:36;13.80;89.90
16313;DHT22;8265;52.622;13.296;2023-08-31T02:05:58;13.70;88.70
16313;DHT22;8265;52.622;13.296;2023-08-31T02:11:19;13.60;88.70
16313;DHT22;8265;52.622;13.296;2023-08-31T02:16:39;13.60;89.10
16313;DHT22;8265;52.622;13.296;2023-08-31T02:22:00;13.40;89.30
16313;DHT22;8265;52.622;13.296;2023-08-31T02:27:21;13.30;90.40
16313;DHT22;8265;52.622;13.296;2023-08-31T02:32:42;13.10;90.30
16313;DHT22;8265;52.622;13.296;2023-08-31T02:38:03;13.00;90.00
16313;DHT22;8265;52.622;13.296;2023-08-31T02:43:24;12.90;90.00
16313;DHT22;8265;52.622;13.296;2023-08-31T02:48:45;12.80;90.20
16313;DHT22;8265;52.622;13.296;2023-08-31T02:54:06;12.80;90.60
16313;DHT22;8265;52.622;13.296;2023-08-31T02:59:27;12.80;91.00
16313;DHT22;8265;52.622;13.296;2023-08-31T03:04:48;12.70;91.30
16313;DHT22;8265;52.622;13.296;2023-08-31T03:10:10;12.60;91.80
16313;DHT22;8265;52.622;13.296;2023-08-31T03:15:33;12.60;92.30
16313;DHT22;8265;52.622;13.296;2023-08-31T03:20:51;12.60;92.10
16313;DHT22;8265;52.622;13.296;2023-08-31T03:26:12;12.60;91.80
16313;DHT22;8265;52.622;13.296;2023-08-31T03:31:33;12.60;91.80
16313;DHT22;8265;52.622;13.296;2023-08-31T03:36:54;12.60;91.90
16313;DHT22;8265;52.622;13.296;2023-08-31T03:42:15;12.60;92.00
16313;DHT22;8265;52.622;13.296;2023-08-31T03:47:37;12.50;91.90
16313;DHT22;8265;52.622;13.296;2023-08-31T03:52:57;12.50;92.30
16313;DHT22;8265;52.622;13.296;2023-08-31T03:58:18;12.50;92.50
16313;DHT22;8265;52.622;13.296;2023-08-31T04:03:41;12.50;92.90
16313;DHT22;8265;52.622;13.296;2023-08-31T04:09:00;12.50;93.50
16313;DHT22;8265;52.622;13.296;2023-08-31T04:14:21;12.50;94.10
16313;DHT22;8265;52.622;13.296;2023-08-31T04:19:42;12.40;94.50
16313;DHT22;8265;52.622;13.296;2023-08-31T04:25:03;12.40;94.90
16313;DHT22;8265;52.622;13.296;2023-08-31T04:30:24;12.40;95.40
16313;DHT22;8265;52.622;13.296;2023-08-31T04:35:45;12.40;95.90
16313;DHT22;8265;52.622;13.296;2023-08-31T04:41:06;12.40;95.90
16313;DHT22;8265;52.622;13.296;2023-08-31T04:46:27;12.50;96.20
16313;DHT22;8265;52.622;13.296;2023-08-31T04:51:48;12.50;96.20
16313;DHT22;8265;52.622;13.296;2023-08-31T04:57:09;12.50;96.40
16313;DHT22;8265;52.622;13.296;2023-08-31T05:02:30;12.50;96.60
16313;DHT22;8265;52.622;13.296;2023-08-31T05:07:51;12.50;96.70
16313;DHT22;8265;52.622;13.296;2023-08-31T05:13:12;12.50;96.70
16313;DHT22;8265;52.622;13.296;2023-08-31T05:18:33;12.60;96.70
16313;DHT22;8265;52.622;13.296;2023-08-31T05:23:54;12.70;96.50
16313;DHT22;8265;52.622;13.296;2023-08-31T05:29:15;12.90;96.20
16313;DHT22;8265;52.622;13.296;2023-08-31T05:34:36;13.00;95.60
16313;DHT22;8265;52.622;13.296;2023-08-31T05:39:57;13.00;95.50
16313;DHT22;8265;52.622;13.296;2023-08-31T05:45:18;13.00;95.40
16313;DHT22;8265;52.622;13.296;2023-08-31T05:50:39;13.00;95.30
16313;DHT22;8265;52.622;13.296;2023-08-31T05:56:00;13.10;95.20
16313;DHT22;8265;52.622;13.296;2023-08-31T06:01:21;13.20;94.90
16313;DHT22;8265;52.622;13.296;2023-08-31T06:06:42;13.20;95.00
16313;DHT22;8265;52.622;13.296;2023-08-31T06:12:04;13.30;94.40
16313;DHT22;8265;52.622;13.296;2023-08-31T06:17:24;13.30;93.90
16313;DHT22;8265;52.622;13.296;2023-08-31T06:22:45;13.30;93.70
16313;DHT22;8265;52.622;13.296;2023-08-31T06:28:06;13.30;93.90
16313;DHT22;8265;52.622;13.296;2023-08-31T06:33:27;13.50;93.70
16313;DHT22;8265;52.622;13.296;2023-08-31T06:38:48;13.70;92.10
16313;DHT22;8265;52.622;13.296;2023-08-31T06:44:09;14.00;91.20
16313;DHT22;8265;52.622;13.296;2023-08-31T06:49:30;14.10;90.70
16313;DHT22;8265;52.622;13.296;2023-08-31T06:54:56;14.20;91.40
16313;DHT22;8265;52.622;13.296;2023-08-31T07:00:13;14.20;89.80
16313;DHT22;8265;52.622;13.296;2023-08-31T07:05:34;14.30;89.10
16313;DHT22;8265;52.622;13.296;2023-08-31T07:10:54;14.40;87.20
16313;DHT22;8265;52.622;13.296;2023-08-31T07:16:15;14.60;88.90
16313;DHT22;8265;52.622;13.296;2023-08-31T07:21:36;14.70;86.80
16313;DHT22;8265;52.622;13.296;2023-08-31T07:26:57;14.70;84.70
16313;DHT22;8265;52.622;13.296;2023-08-31T07:32:18;14.50;86.10
16313;DHT22;8265;52.622;13.296;2023-08-31T07:37:39;14.70;84.80
16313;DHT22;8265;52.622;13.296;2023-08-31T07:43:00;14.60;83.40
16313;DHT22;8265;52.622;13.296;2023-08-31T07:48:21;14.50;85.30
16313;DHT22;8265;52.622;13.296;2023-08-31T07:53:42;14.50;82.20
16313;DHT22;8265;52.622;13.296;2023-08-31T07:59:03;14.30;83.40
16313;DHT22;8265;52.622;13.296;2023-08-31T08:04:24;14.10;83.70
16313;DHT22;8265;52.622;13.296;2023-08-31T08:09:45;14.30;82.70
16313;DHT22;8265;52.622;13.296;2023-08-31T08:15:07;14.40;82.60
16313;DHT22;8265;52.622;13.296;2023-08-31T08:20:27;14.90;80.20
16313;DHT22;8265;52.622;13.296;2023-08-31T08:25:48;15.50;78.20
16313;DHT22;8265;52.622;13.296;2023-08-31T08:31:09;15.50;77.40
16313;DHT22;8265;52.622;13.296;2023-08-31T08:36:30;15.80;76.50
16313;DHT22;8265;52.622;13.296;2023-08-31T08:41:52;15.80;74.40
16313;DHT22;8265;52.622;13.296;2023-08-31T08:47:12;16.00;72.20
16313;DHT22;8265;52.622;13.296;2023-08-31T08:52:33;16.60;71.20
16313;DHT22;8265;52.622;13.296;2023-08-31T08:57:55;16.50;72.20
16313;DHT22;8265;52.622;13.296;2023-08-31T09:03:15;16.00;73.30
16313;DHT22;8265;52.622;13.296;2023-08-31T09:08:36;15.40;74.40
16313;DHT22;8265;52.622;13.296;2023-08-31T09:13:57;15.60;74.90
16313;DHT22;8265;52.622;13.296;2023-08-31T09:19:19;16.00;70.50
16313;DHT22;8265;52.622;13.296;2023-08-31T09:24:40;16.20;69.80
16313;DHT22;8265;52.622;13.296;2023-08-31T09:30:00;16.60;69.80
16313;DHT22;8265;52.622;13.296;2023-08-31T09:35:21;16.90;67.50
16313;DHT22;8265;52.622;13.296;2023-08-31T09:40:42;16.50;66.70
16313;DHT22;8265;52.622;13.296;2023-08-31T09:46:09;16.90;66.50
16313;DHT22;8265;52.622;13.296;2023-08-31T09:51:24;17.20;65.30
16313;DHT22;8265;52.622;13.296;2023-08-31T09:56:46;17.50;63.50
16313;DHT22;8265;52.622;13.296;2023-08-31T10:02:06;17.30;64.00
16313;DHT22;8265;52.622;13.296;2023-08-31T10:07:27;16.80;65.30
16313;DHT22;8265;52.622;13.296;2023-08-31T10:12:48;16.70;64.70
16313;DHT22;8265;52.622;13.296;2023-08-31T10:18:09;17.60;62.50
16313;DHT22;8265;52.622;13.296;2023-08-31T10:23:31;18.00;60.90
16313;DHT22;8265;52.622;13.296;2023-08-31T10:28:52;17.50;62.00
16313;DHT22;8265;52.622;13.296;2023-08-31T10:34:12;16.80;63.70
16313;DHT22;8265;52.622;13.296;2023-08-31T10:39:39;16.50;66.70
16313;DHT22;8265;52.622;13.296;2023-08-31T10:44:54;16.40;69.50
16313;DHT22;8265;52.622;13.296;2023-08-31T10:50:19;16.50;69.30
16313;DHT22;8265;52.622;13.296;2023-08-31T10:55:51;17.30;67.50
16313;DHT22;8265;52.622;13.296;2023-08-31T11:00:57;17.20;65.30
16313;DHT22;8265;52.622;13.296;2023-08-31T11:06:18;16.70;66.70
16313;DHT22;8265;52.622;13.296;2023-08-31T11:11:39;16.50;68.20
16313;DHT22;8265;52.622;13.296;2023-08-31T11:17:00;16.80;66.20
16313;DHT22;8265;52.622;13.296;2023-08-31T11:22:21;16.80;68.40
16313;DHT22;8265;52.622;13.296;2023-08-31T11:27:52;17.00;68.80
16313;DHT22;8265;52.622;13.296;2023-08-31T11:33:04;17.00;67.30
16313;DHT22;8265;52.622;13.296;2023-08-31T11:38:24;16.70;67.30
16313;DHT22;8265;52.622;13.296;2023-08-31T11:43:45;16.50;68.70
16313;DHT22;8265;52.622;13.296;2023-08-31T11:49:06;16.90;69.10
16313;DHT22;8265;52.622;13.296;2023-08-31T11:54:27;17.80;67.80
16313;DHT22;8265;52.622;13.296;2023-08-31T11:59:48;18.60;63.70
16313;DHT22;8265;52.622;13.296;2023-08-31T12:05:09;18.50;60.00
16313;DHT22;8265;52.622;13.296;2023-08-31T12:10:30;17.40;70.80
16313;DHT22;8265;52.622;13.296;2023-08-31T12:15:54;14.90;82.70
16313;DHT22;8265;52.622;13.296;2023-08-31T12:21:12;13.90;85.20
16313;DHT22;8265;52.622;13.296;2023-08-31T12:26:34;13.80;88.80
16313;DHT22;8265;52.622;13.296;2023-08-31T12:31:54;14.50;88.70
16313;DHT22;8265;52.622;13.296;2023-08-31T12:37:15;15.20;88.90
16313;DHT22;8265;52.622;13.296;2023-08-31T12:42:36;15.40;83.20
16313;DHT22;8265;52.622;13.296;2023-08-31T12:47:57;15.00;85.40
16313;DHT22;8265;52.622;13.296;2023-08-31T12:53:18;15.00;87.50
16313;DHT22;8265;52.622;13.296;2023-08-31T12:58:39;15.20;89.10
16313;DHT22;8265;52.622;13.296;2023-08-31T13:04:00;15.70;85.60
16313;DHT22;8265;52.622;13.296;2023-08-31T13:09:21;15.50;88.10
16313;DHT22;8265;52.622;13.296;2023-08-31T13:14:43;15.20;89.90
16313;DHT22;8265;52.622;13.296;2023-08-31T13:20:03;15.00;88.50
16313;DHT22;8265;52.622;13.296;2023-08-31T13:25:24;15.00;90.20
16313;DHT22;8265;52.622;13.296;2023-08-31T13:30:45;15.40;92.50
16313;DHT22;8265;52.622;13.296;2023-08-31T13:36:06;15.90;84.30
16313;DHT22;8265;52.622;13.296;2023-08-31T13:41:27;16.00;85.90
16313;DHT22;8265;52.622;13.296;2023-08-31T13:46:48;16.40;85.70
16313;DHT22;8265;52.622;13.296;2023-08-31T13:52:09;17.00;77.30
16313;DHT22;8265;52.622;13.296;2023-08-31T13:57:30;17.80;77.10
16313;DHT22;8265;52.622;13.296;2023-08-31T14:02:51;17.60;74.80
16313;DHT22;8265;52.622;13.296;2023-08-31T14:08:12;16.90;77.40
16313;DHT22;8265;52.622;13.296;2023-08-31T14:13:33;16.10;79.30
16313;DHT22;8265;52.622;13.296;2023-08-31T14:18:54;15.40;79.50
16313;DHT22;8265;52.622;13.296;2023-08-31T14:24:15;14.50;86.00
16313;DHT22;8265;52.622;13.296;2023-08-31T14:29:36;13.80;87.00
16313;DHT22;8265;52.622;13.296;2023-08-31T14:34:57;13.60;88.70
16313;DHT22;8265;52.622;13.296;2023-08-31T14:40:18;13.10;83.90
16313;DHT22;8265;52.622;13.296;2023-08-31T14:45:39;12.30;84.50
16313;DHT22;8265;52.622;13.296;2023-08-31T14:51:00;12.00;87.40
16313;DHT22;8265;52.622;13.296;2023-08-31T14:56:21;11.90;87.10
16313;DHT22;8265;52.622;13.296;2023-08-31T15:01:42;11.90;87.40
16313;DHT22;8265;52.622;13.296;2023-08-31T15:07:03;12.10;87.40
16313;DHT22;8265;52.622;13.296;2023-08-31T15:12:24;12.10;89.30
16313;DHT22;8265;52.622;13.296;2023-08-31T15:17:45;12.00;88.90
16313;DHT22;8265;52.622;13.296;2023-08-31T15:23:06;11.90;90.00
16313;DHT22;8265;52.622;13.296;2023-08-31T15:28:27;11.90;89.20
16313;DHT22;8265;52.622;13.296;2023-08-31T15:33:48;11.90;87.70
16313;DHT22;8265;52.622;13.296;2023-08-31T15:39:09;11.70;89.60
16313;DHT22;8265;52.622;13.296;2023-08-31T15:44:30;11.50;90.30
16313;DHT22;8265;52.622;13.296;2023-08-31T15:49:51;12.10;91.20
16313;DHT22;8265;52.622;13.296;2023-08-31T15:55:12;13.10;88.30
16313;DHT22;8265;52.622;13.296;2023-08-31T16:00:33;13.30;86.50
16313;DHT22;8265;52.622;13.296;2023-08-31T16:05:54;13.00;87.50
16313;DHT22;8265;52.622;13.296;2023-08-31T16:11:15;13.20;88.40
16313;DHT22;8265;52.622;13.296;2023-08-31T16:16:36;13.10;87.50
16313;DHT22;8265;52.622;13.296;2023-08-31T16:21:57;13.00;87.40
16313;DHT22;8265;52.622;13.296;2023-08-31T16:27:18;12.70;87.80
16313;DHT22;8265;52.622;13.296;2023-08-31T16:32:39;12.70;89.50
16313;DHT22;8265;52.622;13.296;2023-08-31T16:38:00;12.90;90.00
16313;DHT22;8265;52.622;13.296;2023-08-31T16:43:21;13.10;88.50
16313;DHT22;8265;52.622;13.296;2023-08-31T16:48:42;13.10;88.60
16313;DHT22;8265;52.622;13.296;2023-08-31T16:54:03;13.00;88.30
16313;DHT22;8265;52.622;13.296;2023-08-31T16:59:24;12.60;88.70
16313;DHT22;8265;52.622;13.296;2023-08-31T17:04:45;12.50;89.90
16313;DHT22;8265;52.622;13.296;2023-08-31T17:10:06;12.20;89.70
16313;DHT22;8265;52.622;13.296;2023-08-31T17:15:28;12.00;89.60
16313;DHT22;8265;52.622;13.296;2023-08-31T17:20:48;12.00;90.00
16313;DHT22;8265;52.622;13.296;2023-08-31T17:26:11;11.90;90.20
16313;DHT22;8265;52.622;13.296;2023-08-31T17:31:30;11.80;90.90
16313;DHT22;8265;52.622;13.296;2023-08-31T17:36:51;11.70;91.20
16313;DHT22;8265;52.622;13.296;2023-08-31T17:42:12;11.60;90.00
16313;DHT22;8265;52.622;13.296;2023-08-31T17:47:33;11.60;90.90
16313;DHT22;8265;52.622;13.296;2023-08-31T17:52:54;11.60;90.80
16313;DHT22;8265;52.622;13.296;2023-08-31T17:58:15;11.50;90.00
16313;DHT22;8265;52.622;13.296;2023-08-31T18:03:36;11.50;91.50
16313;DHT22;8265;52.622;13.296;2023-08-31T18:08:57;11.50;91.20
16313;DHT22;8265;52.622;13.296;2023-08-31T18:14:18;11.50;92.30
16313;DHT22;8265;52.622;13.296;2023-08-31T18:19:39;11.30;93.10
16313;DHT22;8265;52.622;13.296;2023-08-31T18:25:00;11.30;93.70
16313;DHT22;8265;52.622;13.296;2023-08-31T18:30:21;11.30;93.80
16313;DHT22;8265;52.622;13.296;2023-08-31T18:35:47;11.30;94.40
16313;DHT22;8265;52.622;13.296;2023-08-31T18:41:03;11.10;93.70
16313;DHT22;8265;52.622;13.296;2023-08-31T18:46:24;10.90;94.50
16313;DHT22;8265;52.622;13.296;2023-08-31T18:51:45;10.80;94.90
16313;DHT22;8265;52.622;13.296;2023-08-31T18:57:06;10.70;95.70
16313;DHT22;8265;52.622;13.296;2023-08-31T19:02:27;10.80;95.60
16313;DHT22;8265;52.622;13.296;2023-08-31T19:07:48;10.70;95.20
16313;DHT22;8265;52.622;13.296;2023-08-31T19:13:09;10.60;95.40
16313;DHT22;8265;52.622;13.296;2023-08-31T19:18:30;10.40;95.70
16313;DHT22;8265;52.622;13.296;2023-08-31T19:23:51;10.30;96.20
16313;DHT22;8265;52.622;13.296;2023-08-31T19:29:12;10.30;96.30
16313;DHT22;8265;52.622;13.296;2023-08-31T19:34:33;10.20;96.50
16313;DHT22;8265;52.622;13.296;2023-08-31T19:39:54;10.20;96.30
16313;DHT22;8265;52.622;13.296;2023-08-31T19:45:15;10.20;96.30
16313;DHT22;8265;52.622;13.296;2023-08-31T19:50:36;10.20;96.20
16313;DHT22;8265;52.622;13.296;2023-08-31T19:55:57;10.20;96.50
16313;DHT22;8265;52.622;13.296;2023-08-31T20:01:18;10.20;96.60
16313;DHT22;8265;52.622;13.296;2023-08-31T20:06:39;10.30;96.90
16313;DHT22;8265;52.622;13.296;2023-08-31T20:12:00;10.30;96.60
16313;DHT22;8265;52.622;13.296;2023-08-31T20:17:21;10.20;96.50
16313;DHT22;8265;52.622;13.296;2023-08-31T20:22:42;10.30;96.40
16313;DHT22;8265;52.622;13.296;2023-08-31T20:28:03;10.30;96.50
16313;DHT22;8265;52.622;13.296;2023-08-31T20:33:23;10.20;96.50
16313;DHT22;8265;52.622;13.296;2023-08-31T20:38:45;10.10;96.50
16313;DHT22;8265;52.622;13.296;2023-08-31T20:44:05;10.00;96.80
16313;DHT22;8265;52.622;13.296;2023-08-31T20:49:26;10.00;96.90
16313;DHT22;8265;52.622;13.296;2023-08-31T20:54:48;10.00;97.20
16313;DHT22;8265;52.622;13.296;2023-08-31T21:00:09;10.00;97.20
16313;DHT22;8265;52.622;13.296;2023-08-31T21:05:29;9.90;97.30
16313;DHT22;8265;52.622;13.296;2023-08-31T21:10:50;10.00;97.10
16313;DHT22;8265;52.622;13.296;2023-08-31T21:16:11;10.00;97.00
16313;DHT22;8265;52.622;13.296;2023-08-31T21:21:32;10.00;97.10
16313;DHT22;8265;52.622;13.296;2023-08-31T21:26:53;10.00;97.20
16313;DHT22;8265;52.622;13.296;2023-08-31T21:32:14;10.00;97.20
16313;DHT22;8265;52.622;13.296;2023-08-31T21:37:35;10.10;97.30
16313;DHT22;8265;52.622;13.296;2023-08-31T21:42:56;10.20;97.20
16313;DHT22;8265;52.622;13.296;2023-08-31T21:48:17;10.20;97.20
16313;DHT22;8265;52.622;13.296;2023-08-31T21:53:38;10.20;96.80
16313;DHT22;8265;52.622;13.296;2023-08-31T21:58:59;10.20;96.80
16313;DHT22;8265;52.622;13.296;2023-08-31T22:04:20;10.40;96.60
16313;DHT22;8265;52.622;13.296;2023-08-31T22:09:41;10.40;96.40
16313;DHT22;8265;52.622;13.296;2023-08-31T22:15:04;10.40;96.00
16313;DHT22;8265;52.622;13.296;2023-08-31T22:20:23;10.40;96.40
16313;DHT22;8265;52.622;13.296;2023-08-31T22:25:44;10.50;96.30
16313;DHT22;8265;52.622;13.296;2023-08-31T22:31:05;10.50;96.50
16313;DHT22;8265;52.622;13.296;2023-08-31T22:36:26;10.40;96.60
16313;DHT22;8265;52.622;13.296;2023-08-31T22:41:47;10.30;96.60
16313;DHT22;8265;52.622;13.296;2023-08-31T22:47:08;10.20;96.50
16313;DHT22;8265;52.622;13.296;2023-08-31T22:52:29;10.10;96.70
16313;DHT22;8265;52.622;13.296;2023-08-31T22:57:50;10.10;97.00
16313;DHT22;8265;52.622;13.296;2023-08-31T23:03:11;10.00;96.90
16313;DHT22;8265;52.622;13.296;2023-08-31T23:08:32;10.00;97.00
16313;DHT22;8265;52.622;13.296;2023-08-31T23:13:53;10.00;96.80
16313;DHT22;8265;52.622;13.296;2023-08-31T23:19:14;10.00;96.90
16313;DHT22;8265;52.622;13.296;2023-08-31T23:24:35;10.00;96.80
16313;DHT22;8265;52.622;13.296;2023-08-31T23:29:57;10.00;96.60
16313;DHT22;8265;52.622;13.296;2023-08-31T23:35:17;9.90;96.80
16313;DHT22;8265;52.622;13.296;2023-08-31T23:40:38;9.80;96.80
16313;DHT22;8265;52.622;13.296;2023-08-31T23:45:59;9.80;96.90
16313;DHT22;8265;52.622;13.296;2023-08-31T23:51:20;9.70;97.00
16313;DHT22;8265;52.622;13.296;2023-08-31T23:56:41;9.70;97.20
